sensor_id;sensor_type;location;lat;lon;timestamp;pressure;altitude;pressure_sealevel;temperature;humidity
54262;BME280;40174;52.364;6.452;2023-08-06T00:00:25;100296.25;;;14.44;100.00
54262;BME280;40174;52.364;6.452;2023-08-06T00:02:52;100302.06;;;14.48;100.00
54262;BME280;40174;52.364;6.452;2023-08-06T00:05:18;100302.06;;;14.48;100.00
54262;BME280;40174;52.364;6.452;2023-08-06T00:07:46;100297.91;;;14.45;100.00
54262;BME280;40174;52.364;6.452;2023-08-06T00:10:14;100291.75;;;14.45;100.00
54262;BME280;40174;52.364;6.452;2023-08-06T00:12:41;100296.06;;;14.46;100.00
54262;BME280;40174;52.364;6.452;2023-08-06T00:15:09;100285.78;;;14.43;100.00
54262;BME280;40174;52.364;6.452;2023-08-06T00:17:36;100283.13;;;14.43;100.00
54262;BME280;40174;52.364;6.452;2023-08-06T00:20:04;100281.47;;;14.42;100.00
54262;BME280;40174;52.364;6.452;2023-08-06T00:22:31;100279.94;;;14.39;100.00
54262;BME280;40174;52.364;6.452;2023-08-06T00:24:58;100281.91;;;14.37;100.00
54262;BME280;40174;52.364;6.452;2023-08-06T00:27:26;100284.09;;;14.33;100.00
54262;BME280;40174;52.364;6.452;2023-08-06T00:29:53;100285.06;;;14.32;100.00
54262;BME280;40174;52.364;6.452;2023-08-06T00:32:20;100281.75;;;14.30;100.00
54262;BME280;40174;52.364;6.452;2023-08-06T00:34:46;100277.56;;;14.28;100.00
54262;BME280;40174;52.364;6.452;2023-08-06T00:37:15;100278.09;;;14.31;100.00
54262;BME280;40174;52.364;6.452;2023-08-06T00:39:42;100284.72;;;14.27;100.00
54262;BME280;40174;52.364;6.452;2023-08-06T00:42:08;100285.19;;;14.23;100.00
54262;BME280;40174;52.364;6.452;2023-08-06T00:44:37;100284.84;;;14.18;100.00
54262;BME280;40174;52.364;6.452;2023-08-06T00:47:04;100286.34;;;14.20;100.00
54262;BME280;40174;52.364;6.452;2023-08-06T00:49:31;100277.38;;;14.13;100.00
54262;BME280;40174;52.364;6.452;2023-08-06T00:51:58;100278.72;;;14.17;100.00
54262;BME280;40174;52.364;6.452;2023-08-06T00:54:26;100292.16;;;14.16;100.00
54262;BME280;40174;52.364;6.452;2023-08-06T00:56:55;100285.00;;;14.16;100.00
54262;BME280;40174;52.364;6.452;2023-08-06T00:59:24;100286.84;;;14.16;100.00
54262;BME280;40174;52.364;6.452;2023-08-06T01:01:52;100293.81;;;14.17;100.00
54262;BME280;40174;52.364;6.452;2023-08-06T01:04:19;100292.00;;;14.17;100.00
54262;BME280;40174;52.364;6.452;2023-08-06T01:06:48;100289.50;;;14.16;100.00
54262;BME280;40174;52.364;6.452;2023-08-06T01:09:30;100292.00;;;14.17;100.00
54262;BME280;40174;52.364;6.452;2023-08-06T01:12:06;100278.03;;;14.15;100.00
54262;BME280;40174;52.364;6.452;2023-08-06T01:14:44;100280.53;;;14.17;100.00
54262;BME280;40174;52.364;6.452;2023-08-06T01:17:15;100275.88;;;14.19;100.00
54262;BME280;40174;52.364;6.452;2023-08-06T01:19:42;100288.50;;;14.17;100.00
54262;BME280;40174;52.364;6.452;2023-08-06T01:22:10;100278.88;;;14.16;100.00
54262;BME280;40174;52.364;6.452;2023-08-06T01:24:37;100268.91;;;14.18;100.00
54262;BME280;40174;52.364;6.452;2023-08-06T01:27:08;100270.75;;;14.17;100.00
54262;BME280;40174;52.364;6.452;2023-08-06T01:29:39;100264.41;;;14.18;100.00
54262;BME280;40174;52.364;6.452;2023-08-06T01:32:08;100274.03;;;14.19;100.00
54262;BME280;40174;52.364;6.452;2023-08-06T01:34:37;100266.25;;;14.18;100.00
54262;BME280;40174;52.364;6.452;2023-08-06T01:41:12;100262.59;;;14.19;100.00
54262;BME280;40174;52.364;6.452;2023-08-06T01:43:39;100259.63;;;14.22;100.00
54262;BME280;40174;52.364;6.452;2023-08-06T01:46:05;100254.63;;;14.19;100.00
54262;BME280;40174;52.364;6.452;2023-08-06T01:48:32;100254.47;;;14.20;100.00
54262;BME280;40174;52.364;6.452;2023-08-06T01:50:59;100252.78;;;14.19;100.00
54262;BME280;40174;52.364;6.452;2023-08-06T01:53:25;100243.50;;;14.15;100.00
54262;BME280;40174;52.364;6.452;2023-08-06T01:55:52;100248.13;;;14.13;100.00
54262;BME280;40174;52.364;6.452;2023-08-06T01:58:20;100245.63;;;14.11;100.00
54262;BME280;40174;52.364;6.452;2023-08-06T02:00:46;100258.59;;;14.14;100.00
54262;BME280;40174;52.364;6.452;2023-08-06T02:03:13;100252.63;;;14.12;100.00
54262;BME280;40174;52.364;6.452;2023-08-06T02:05:40;100258.91;;;14.11;100.00
54262;BME280;40174;52.364;6.452;2023-08-06T02:08:07;100255.44;;;14.11;100.00
54262;BME280;40174;52.364;6.452;2023-08-06T02:10:34;100249.97;;;14.12;100.00
54262;BME280;40174;52.364;6.452;2023-08-06T02:13:01;100250.78;;;14.13;100.00
54262;BME280;40174;52.364;6.452;2023-08-06T02:15:29;100250.94;;;14.11;100.00
54262;BME280;40174;52.364;6.452;2023-08-06T02:17:56;100252.09;;;14.09;100.00
54262;BME280;40174;52.364;6.452;2023-08-06T02:20:23;100244.47;;;14.06;100.00
54262;BME280;40174;52.364;6.452;2023-08-06T02:22:49;100247.75;;;14.08;100.00
54262;BME280;40174;52.364;6.452;2023-08-06T02:25:16;100246.25;;;14.05;100.00
54262;BME280;40174;52.364;6.452;2023-08-06T02:27:43;100234.66;;;14.06;100.00
54262;BME280;40174;52.364;6.452;2023-08-06T02:30:09;100240.13;;;14.05;100.00
54262;BME280;40174;52.364;6.452;2023-08-06T02:32:39;100232.16;;;14.05;100.00
54262;BME280;40174;52.364;6.452;2023-08-06T02:35:06;100235.81;;;14.04;100.00
54262;BME280;40174;52.364;6.452;2023-08-06T02:37:33;100232.16;;;14.05;100.00
54262;BME280;40174;52.364;6.452;2023-08-06T02:40:00;100227.16;;;14.02;100.00
54262;BME280;40174;52.364;6.452;2023-08-06T02:42:27;100233.31;;;14.02;100.00
54262;BME280;40174;52.364;6.452;2023-08-06T02:44:54;100223.66;;;14.01;100.00
54262;BME280;40174;52.364;6.452;2023-08-06T02:47:21;100225.81;;;13.98;100.00
54262;BME280;40174;52.364;6.452;2023-08-06T02:49:49;100223.97;;;13.98;100.00
54262;BME280;40174;52.364;6.452;2023-08-06T02:52:16;100225.66;;;13.99;100.00
54262;BME280;40174;52.364;6.452;2023-08-06T02:54:43;100220.66;;;13.96;100.00
54262;BME280;40174;52.364;6.452;2023-08-06T02:57:11;100219.81;;;13.96;100.00
54262;BME280;40174;52.364;6.452;2023-08-06T02:59:38;100215.34;;;13.96;100.00
54262;BME280;40174;52.364;6.452;2023-08-06T03:02:19;100213.84;;;13.93;100.00
54262;BME280;40174;52.364;6.452;2023-08-06T03:05:14;100209.00;;;13.89;100.00
54262;BME280;40174;52.364;6.452;2023-08-06T03:07:44;100209.00;;;13.89;100.00
54262;BME280;40174;52.364;6.452;2023-08-06T03:10:17;100204.69;;;13.88;100.00
54262;BME280;40174;52.364;6.452;2023-08-06T03:12:46;100204.03;;;13.86;100.00
54262;BME280;40174;52.364;6.452;2023-08-06T03:15:13;100209.34;;;13.86;100.00
54262;BME280;40174;52.364;6.452;2023-08-06T03:17:42;100201.38;;;13.86;100.00
54262;BME280;40174;52.364;6.452;2023-08-06T03:20:10;100210.31;;;13.85;100.00
54262;BME280;40174;52.364;6.452;2023-08-06T03:22:38;100209.34;;;13.86;100.00
54262;BME280;40174;52.364;6.452;2023-08-06T03:25:06;100205.16;;;13.83;100.00
54262;BME280;40174;52.364;6.452;2023-08-06T03:27:35;100201.66;;;13.83;100.00
54262;BME280;40174;52.364;6.452;2023-08-06T03:30:02;100208.00;;;13.82;100.00
54262;BME280;40174;52.364;6.452;2023-08-06T03:32:29;100202.97;;;13.79;100.00
54262;BME280;40174;52.364;6.452;2023-08-06T03:34:57;100195.00;;;13.79;100.00
54262;BME280;40174;52.364;6.452;2023-08-06T03:37:28;100203.16;;;13.77;100.00
54262;BME280;40174;52.364;6.452;2023-08-06T03:39:56;100211.94;;;13.78;100.00
54262;BME280;40174;52.364;6.452;2023-08-06T03:42:23;100210.13;;;13.78;100.00
54262;BME280;40174;52.364;6.452;2023-08-06T03:44:50;100212.09;;;13.76;100.00
54262;BME280;40174;52.364;6.452;2023-08-06T03:47:17;100210.13;;;13.78;100.00
54262;BME280;40174;52.364;6.452;2023-08-06T03:49:49;100213.78;;;13.77;100.00
54262;BME280;40174;52.364;6.452;2023-08-06T03:52:16;100212.94;;;13.77;100.00
54262;BME280;40174;52.364;6.452;2023-08-06T03:54:43;100215.59;;;13.77;100.00
54262;BME280;40174;52.364;6.452;2023-08-06T03:57:11;100216.44;;;13.77;100.00
54262;BME280;40174;52.364;6.452;2023-08-06T03:59:38;100211.28;;;13.76;100.00
54262;BME280;40174;52.364;6.452;2023-08-06T04:02:05;100213.94;;;13.76;100.00
54262;BME280;40174;52.364;6.452;2023-08-06T04:04:32;100214.44;;;13.79;100.00
54262;BME280;40174;52.364;6.452;2023-08-06T04:06:59;100222.56;;;13.78;100.00
54262;BME280;40174;52.364;6.452;2023-08-06T04:09:28;100222.72;;;13.76;100.00
54262;BME280;40174;52.364;6.452;2023-08-06T04:11:55;100212.94;;;13.77;100.00
54262;BME280;40174;52.364;6.452;2023-08-06T04:14:23;100209.44;;;13.76;100.00
54262;BME280;40174;52.364;6.452;2023-08-06T04:16:49;100213.78;;;13.77;100.00
54262;BME280;40174;52.364;6.452;2023-08-06T04:19:16;100211.28;;;13.76;100.00
54262;BME280;40174;52.364;6.452;2023-08-06T04:21:43;100212.28;;;13.75;100.00
54262;BME280;40174;52.364;6.452;2023-08-06T04:24:10;100213.78;;;13.77;100.00
54262;BME280;40174;52.364;6.452;2023-08-06T04:26:36;100210.13;;;13.78;100.00
54262;BME280;40174;52.364;6.452;2023-08-06T04:29:03;100210.28;;;13.77;100.00
54262;BME280;40174;52.364;6.452;2023-08-06T04:31:32;100219.91;;;13.78;100.00
54262;BME280;40174;52.364;6.452;2023-08-06T04:34:00;100213.94;;;13.76;100.00
54262;BME280;40174;52.364;6.452;2023-08-06T04:36:28;100213.78;;;13.77;100.00
54262;BME280;40174;52.364;6.452;2023-08-06T04:38:55;100213.59;;;13.79;100.00
54262;BME280;40174;52.364;6.452;2023-08-06T04:41:21;100216.09;;;13.80;100.00
54262;BME280;40174;52.364;6.452;2023-08-06T04:43:48;100213.13;;;13.83;100.00
54262;BME280;40174;52.364;6.452;2023-08-06T04:46:16;100206.16;;;13.82;100.00
54262;BME280;40174;52.364;6.452;2023-08-06T04:48:44;100219.09;;;13.85;100.00
54262;BME280;40174;52.364;6.452;2023-08-06T04:51:10;100217.97;;;13.88;100.00
54262;BME280;40174;52.364;6.452;2023-08-06T04:53:37;100210.84;;;13.88;100.00
54262;BME280;40174;52.364;6.452;2023-08-06T04:56:04;100215.00;;;13.91;100.00
54262;BME280;40174;52.364;6.452;2023-08-06T04:58:30;100215.53;;;13.95;100.00
54262;BME280;40174;52.364;6.452;2023-08-06T05:00:57;100212.88;;;13.95;100.00
54262;BME280;40174;52.364;6.452;2023-08-06T05:03:24;100210.03;;;13.96;100.00
54262;BME280;40174;52.364;6.452;2023-08-06T05:05:52;100204.72;;;13.96;100.00
54262;BME280;40174;52.364;6.452;2023-08-06T05:08:18;100215.03;;;13.99;100.00
54262;BME280;40174;52.364;6.452;2023-08-06T05:10:45;100218.34;;;14.01;100.00
54262;BME280;40174;52.364;6.452;2023-08-06T05:13:12;100224.50;;;14.02;100.00
54262;BME280;40174;52.364;6.452;2023-08-06T05:15:39;100223.19;;;14.06;100.00
54262;BME280;40174;52.364;6.452;2023-08-06T05:18:07;100223.19;;;14.06;100.00
54262;BME280;40174;52.364;6.452;2023-08-06T05:20:36;100220.06;;;14.10;100.00
54262;BME280;40174;52.364;6.452;2023-08-06T05:23:04;100226.34;;;14.09;100.00
54262;BME280;40174;52.364;6.452;2023-08-06T05:25:31;100221.56;;;14.13;100.00
54262;BME280;40174;52.364;6.452;2023-08-06T05:27:57;100233.00;;;14.13;100.00
54262;BME280;40174;52.364;6.452;2023-08-06T05:30:25;100238.66;;;14.19;100.00
54262;BME280;40174;52.364;6.452;2023-08-06T05:32:51;100235.84;;;14.20;100.00
54262;BME280;40174;52.364;6.452;2023-08-06T05:35:18;100239.50;;;14.19;100.00
54262;BME280;40174;52.364;6.452;2023-08-06T05:37:45;100236.69;;;14.21;100.00
54262;BME280;40174;52.364;6.452;2023-08-06T05:40:13;100240.84;;;14.23;100.00
54262;BME280;40174;52.364;6.452;2023-08-06T05:42:40;100240.69;;;14.25;100.00
54262;BME280;40174;52.364;6.452;2023-08-06T05:45:08;100242.34;;;14.26;100.00
54262;BME280;40174;52.364;6.452;2023-08-06T05:47:35;100239.69;;;14.26;100.00
54262;BME280;40174;52.364;6.452;2023-08-06T05:50:01;100238.56;;;14.28;100.00
54262;BME280;40174;52.364;6.452;2023-08-06T05:52:28;100247.22;;;14.30;100.00
54262;BME280;40174;52.364;6.452;2023-08-06T05:54:55;100249.69;;;14.32;100.00
54262;BME280;40174;52.364;6.452;2023-08-06T05:57:23;100239.88;;;14.32;100.00
54262;BME280;40174;52.364;6.452;2023-08-06T05:59:49;100244.88;;;14.35;100.00
54262;BME280;40174;52.364;6.452;2023-08-06T06:02:16;100252.38;;;14.40;100.00
54262;BME280;40174;52.364;6.452;2023-08-06T06:04:44;100246.22;;;14.40;100.00
54262;BME280;40174;52.364;6.452;2023-08-06T06:07:10;100259.03;;;14.44;100.00
54262;BME280;40174;52.364;6.452;2023-08-06T06:09:37;100253.72;;;14.44;100.00
54262;BME280;40174;52.364;6.452;2023-08-06T06:12:05;100256.03;;;14.47;100.00
54262;BME280;40174;52.364;6.452;2023-08-06T06:14:33;100258.53;;;14.49;100.00
54262;BME280;40174;52.364;6.452;2023-08-06T06:17:00;100260.72;;;14.53;100.00
54262;BME280;40174;52.364;6.452;2023-08-06T06:19:27;100264.75;;;14.58;100.00
54262;BME280;40174;52.364;6.452;2023-08-06T06:21:54;100257.44;;;14.60;100.00
54262;BME280;40174;52.364;6.452;2023-08-06T06:24:23;100258.75;;;14.64;100.00
54262;BME280;40174;52.364;6.452;2023-08-06T06:26:49;100265.41;;;14.68;100.00
54262;BME280;40174;52.364;6.452;2023-08-06T06:29:16;100261.59;;;14.70;100.00
54262;BME280;40174;52.364;6.452;2023-08-06T06:31:44;100265.75;;;14.73;100.00
54262;BME280;40174;52.364;6.452;2023-08-06T06:34:11;100267.09;;;14.77;100.00
54262;BME280;40174;52.364;6.452;2023-08-06T06:36:37;100265.63;;;14.83;100.00
54262;BME280;40174;52.364;6.452;2023-08-06T06:39:04;100275.78;;;14.87;100.00
54262;BME280;40174;52.364;6.452;2023-08-06T06:41:31;100269.13;;;14.91;100.00
54262;BME280;40174;52.364;6.452;2023-08-06T06:44:05;100266.63;;;14.98;100.00
54262;BME280;40174;52.364;6.452;2023-08-06T06:46:32;100272.44;;;15.02;100.00
54262;BME280;40174;52.364;6.452;2023-08-06T06:49:00;100277.63;;;15.11;100.00
54262;BME280;40174;52.364;6.452;2023-08-06T06:51:26;100272.47;;;15.18;100.00
54262;BME280;40174;52.364;6.452;2023-08-06T06:53:53;100267.47;;;15.23;100.00
54262;BME280;40174;52.364;6.452;2023-08-06T06:56:20;100283.25;;;15.33;100.00
54262;BME280;40174;52.364;6.452;2023-08-06T06:58:46;100275.47;;;15.31;100.00
54262;BME280;40174;52.364;6.452;2023-08-06T07:01:13;100279.09;;;15.38;100.00
54262;BME280;40174;52.364;6.452;2023-08-06T07:03:40;100278.44;;;15.36;100.00
54262;BME280;40174;52.364;6.452;2023-08-06T07:06:08;100277.13;;;15.41;100.00
54262;BME280;40174;52.364;6.452;2023-08-06T07:08:34;100279.94;;;15.47;100.00
54262;BME280;40174;52.364;6.452;2023-08-06T07:11:01;100287.06;;;15.47;100.00
54262;BME280;40174;52.364;6.452;2023-08-06T07:13:28;100289.56;;;15.56;100.00
54262;BME280;40174;52.364;6.452;2023-08-06T07:15:55;100284.91;;;15.58;100.00
54262;BME280;40174;52.364;6.452;2023-08-06T07:18:22;100283.91;;;15.59;100.00
54262;BME280;40174;52.364;6.452;2023-08-06T07:20:49;100278.56;;;15.68;100.00
54262;BME280;40174;52.364;6.452;2023-08-06T07:23:17;100279.22;;;15.70;100.00
54262;BME280;40174;52.364;6.452;2023-08-06T07:25:43;100286.22;;;15.79;100.00
54262;BME280;40174;52.364;6.452;2023-08-06T07:28:09;100287.38;;;15.85;100.00
54262;BME280;40174;52.364;6.452;2023-08-06T07:30:38;100279.53;;;15.91;100.00
54262;BME280;40174;52.364;6.452;2023-08-06T07:33:05;100289.16;;;16.00;100.00
54262;BME280;40174;52.364;6.452;2023-08-06T07:35:32;100292.47;;;16.03;100.00
54262;BME280;40174;52.364;6.452;2023-08-06T07:37:58;100296.81;;;16.04;100.00
54262;BME280;40174;52.364;6.452;2023-08-06T07:40:26;100292.16;;;16.06;100.00
54262;BME280;40174;52.364;6.452;2023-08-06T07:42:53;100293.94;;;16.13;100.00
54262;BME280;40174;52.364;6.452;2023-08-06T07:45:20;100295.28;;;16.17;100.00
54262;BME280;40174;52.364;6.452;2023-08-06T07:47:47;100301.94;;;16.21;100.00
54262;BME280;40174;52.364;6.452;2023-08-06T07:50:13;100302.41;;;16.25;100.00
54262;BME280;40174;52.364;6.452;2023-08-06T07:52:40;100300.75;;;16.24;100.00
54262;BME280;40174;52.364;6.452;2023-08-06T07:55:07;100307.41;;;16.28;100.00
54262;BME280;40174;52.364;6.452;2023-08-06T07:57:35;100305.19;;;16.32;100.00
54262;BME280;40174;52.364;6.452;2023-08-06T08:00:05;100302.38;;;16.33;100.00
54262;BME280;40174;52.364;6.452;2023-08-06T08:02:38;100302.22;;;16.35;100.00
54262;BME280;40174;52.364;6.452;2023-08-06T08:05:05;100302.53;;;16.32;100.00
54262;BME280;40174;52.364;6.452;2023-08-06T08:07:32;100302.66;;;16.38;100.00
54262;BME280;40174;52.364;6.452;2023-08-06T08:09:59;100290.66;;;16.42;100.00
54262;BME280;40174;52.364;6.452;2023-08-06T08:12:26;100294.81;;;16.45;100.00
54262;BME280;40174;52.364;6.452;2023-08-06T08:14:53;100295.31;;;16.49;100.00
54262;BME280;40174;52.364;6.452;2023-08-06T08:17:20;100296.63;;;16.53;100.00
54262;BME280;40174;52.364;6.452;2023-08-06T08:19:47;100293.28;;;16.51;100.00
54262;BME280;40174;52.364;6.452;2023-08-06T08:22:14;100303.75;;;16.52;100.00
54262;BME280;40174;52.364;6.452;2023-08-06T08:24:40;100304.25;;;16.56;100.00
54262;BME280;40174;52.364;6.452;2023-08-06T08:27:07;100304.75;;;16.59;100.00
54262;BME280;40174;52.364;6.452;2023-08-06T08:29:33;100303.91;;;16.59;100.00
54262;BME280;40174;52.364;6.452;2023-08-06T08:32:01;100298.66;;;16.74;100.00
54262;BME280;40174;52.364;6.452;2023-08-06T08:34:28;100303.56;;;16.93;100.00
54262;BME280;40174;52.364;6.452;2023-08-06T08:36:55;100307.78;;;17.11;100.00
54262;BME280;40174;52.364;6.452;2023-08-06T08:39:22;100311.81;;;17.07;100.00
54262;BME280;40174;52.364;6.452;2023-08-06T08:41:49;100304.63;;;17.07;100.00
54262;BME280;40174;52.364;6.452;2023-08-06T08:44:16;100308.78;;;17.10;100.00
54262;BME280;40174;52.364;6.452;2023-08-06T08:46:43;100306.69;;;16.97;100.00
54262;BME280;40174;52.364;6.452;2023-08-06T08:49:12;100309.91;;;16.92;100.00
54262;BME280;40174;52.364;6.452;2023-08-06T08:51:38;100308.25;;;16.91;100.00
54262;BME280;40174;52.364;6.452;2023-08-06T08:54:07;100309.25;;;16.90;100.00
54262;BME280;40174;52.364;6.452;2023-08-06T08:56:34;100301.91;;;16.92;100.00
54262;BME280;40174;52.364;6.452;2023-08-06T08:59:01;100311.38;;;16.95;100.00
54262;BME280;40174;52.364;6.452;2023-08-06T09:01:28;100305.72;;;16.98;100.00
54262;BME280;40174;52.364;6.452;2023-08-06T09:03:56;100313.53;;;16.99;100.00
54262;BME280;40174;52.364;6.452;2023-08-06T09:06:28;100313.00;;;17.04;100.00
54262;BME280;40174;52.364;6.452;2023-08-06T09:09:01;100317.34;;;17.05;100.00
54262;BME280;40174;52.364;6.452;2023-08-06T09:11:35;100310.25;;;17.12;100.00
54262;BME280;40174;52.364;6.452;2023-08-06T09:14:06;100317.03;;;17.23;100.00
54262;BME280;40174;52.364;6.452;2023-08-06T09:16:34;100309.13;;;17.30;100.00
54262;BME280;40174;52.364;6.452;2023-08-06T09:19:06;100314.16;;;17.48;100.00
54262;BME280;40174;52.364;6.452;2023-08-06T09:21:36;100322.94;;;17.56;100.00
54262;BME280;40174;52.364;6.452;2023-08-06T09:24:07;100323.69;;;17.65;100.00
54262;BME280;40174;52.364;6.452;2023-08-06T09:26:34;100329.19;;;17.86;100.00
54262;BME280;40174;52.364;6.452;2023-08-06T09:29:00;100331.03;;;17.86;100.00
54262;BME280;40174;52.364;6.452;2023-08-06T09:31:32;100336.47;;;17.93;100.00
54262;BME280;40174;52.364;6.452;2023-08-06T09:34:00;100340.16;;;17.92;100.00
54262;BME280;40174;52.364;6.452;2023-08-06T09:36:27;100340.16;;;18.06;100.00
54262;BME280;40174;52.364;6.452;2023-08-06T09:38:55;100337.59;;;18.13;100.00
54262;BME280;40174;52.364;6.452;2023-08-06T09:41:26;100345.59;;;18.13;100.00
54262;BME280;40174;52.364;6.452;2023-08-06T09:43:53;100346.25;;;18.15;100.00
54262;BME280;40174;52.364;6.452;2023-08-06T09:46:20;100335.13;;;18.12;100.00
54262;BME280;40174;52.364;6.452;2023-08-06T09:48:47;100339.34;;;18.21;100.00
54262;BME280;40174;52.364;6.452;2023-08-06T09:51:15;100347.56;;;18.19;100.00
54262;BME280;40174;52.364;6.452;2023-08-06T09:53:43;100342.38;;;18.18;100.00
54262;BME280;40174;52.364;6.452;2023-08-06T09:56:13;100346.81;;;18.11;100.00
54262;BME280;40174;52.364;6.452;2023-08-06T09:58:42;100348.94;;;18.15;100.00
54262;BME280;40174;52.364;6.452;2023-08-06T10:01:08;100344.50;;;18.22;100.00
54262;BME280;40174;52.364;6.452;2023-08-06T10:03:36;100352.91;;;18.19;100.00
54262;BME280;40174;52.364;6.452;2023-08-06T10:06:03;100354.38;;;18.22;100.00
54262;BME280;40174;52.364;6.452;2023-08-06T10:08:32;100354.28;;;18.15;100.00
54262;BME280;40174;52.364;6.452;2023-08-06T10:10:59;100355.09;;;18.16;100.00
54262;BME280;40174;52.364;6.452;2023-08-06T10:13:29;100354.09;;;18.17;100.00
54262;BME280;40174;52.364;6.452;2023-08-06T10:15:56;100350.13;;;18.13;100.00
54262;BME280;40174;52.364;6.452;2023-08-06T10:18:23;100354.94;;;18.17;100.00
54262;BME280;40174;52.364;6.452;2023-08-06T10:20:50;100354.75;;;18.19;100.00
54262;BME280;40174;52.364;6.452;2023-08-06T10:23:17;100347.44;;;18.13;100.00
54262;BME280;40174;52.364;6.452;2023-08-06T10:25:53;100354.94;;;18.17;100.00
54262;BME280;40174;52.364;6.452;2023-08-06T10:28:21;100354.28;;;18.15;100.00
54262;BME280;40174;52.364;6.452;2023-08-06T10:30:49;100343.97;;;18.12;100.00
54262;BME280;40174;52.364;6.452;2023-08-06T10:33:19;100346.63;;;18.12;100.00
54262;BME280;40174;52.364;6.452;2023-08-06T10:35:47;100351.34;;;18.10;100.00
54262;BME280;40174;52.364;6.452;2023-08-06T10:38:15;100348.28;;;17.98;100.00
54262;BME280;40174;52.364;6.452;2023-08-06T10:40:48;100349.13;;;17.99;100.00
54262;BME280;40174;52.364;6.452;2023-08-06T10:43:25;100343.28;;;17.95;100.00
54262;BME280;40174;52.364;6.452;2023-08-06T10:45:54;100340.16;;;17.92;100.00
54262;BME280;40174;52.364;6.452;2023-08-06T10:48:28;100343.41;;;17.87;100.00
54262;BME280;40174;52.364;6.452;2023-08-06T10:50:56;100347.44;;;17.83;100.00
54262;BME280;40174;52.364;6.452;2023-08-06T10:53:22;100348.25;;;17.83;100.00
54262;BME280;40174;52.364;6.452;2023-08-06T10:55:49;100346.69;;;17.89;100.00
54262;BME280;40174;52.364;6.452;2023-08-06T10:58:16;100345.53;;;17.92;100.00
54262;BME280;40174;52.364;6.452;2023-08-06T11:00:42;100339.16;;;17.93;100.00
54262;BME280;40174;52.364;6.452;2023-08-06T11:03:11;100348.28;;;17.98;100.00
54262;BME280;40174;52.364;6.452;2023-08-06T11:05:38;100350.69;;;18.08;100.00
54262;BME280;40174;52.364;6.452;2023-08-06T11:08:05;100346.63;;;18.12;100.00
54262;BME280;40174;52.364;6.452;2023-08-06T11:10:33;100343.31;;;18.10;100.00
54262;BME280;40174;52.364;6.452;2023-08-06T11:13:00;100340.00;;;18.08;100.00
54262;BME280;40174;52.364;6.452;2023-08-06T11:15:27;100340.00;;;18.08;100.00
54262;BME280;40174;52.364;6.452;2023-08-06T11:17:54;100343.97;;;18.12;100.00
54262;BME280;40174;52.364;6.452;2023-08-06T11:20:23;100343.41;;;18.17;100.00
54262;BME280;40174;52.364;6.452;2023-08-06T11:22:50;100348.84;;;18.23;100.00
54262;BME280;40174;52.364;6.452;2023-08-06T11:25:20;100339.44;;;18.27;100.00
54262;BME280;40174;52.364;6.452;2023-08-06T11:27:47;100337.75;;;18.26;100.00
54262;BME280;40174;52.364;6.452;2023-08-06T11:30:14;100346.53;;;18.35;100.00
54262;BME280;40174;52.364;6.452;2023-08-06T11:32:47;100344.31;;;18.39;100.00
54262;BME280;40174;52.364;6.452;2023-08-06T11:35:15;100340.63;;;18.40;100.00
54262;BME280;40174;52.364;6.452;2023-08-06T11:37:45;100345.31;;;18.53;100.00
54262;BME280;40174;52.364;6.452;2023-08-06T11:40:14;100345.84;;;18.63;100.00
54262;BME280;40174;52.364;6.452;2023-08-06T11:42:41;100345.56;;;18.73;100.00
54262;BME280;40174;52.364;6.452;2023-08-06T11:45:09;100339.81;;;18.76;100.00
54262;BME280;40174;52.364;6.452;2023-08-06T11:47:38;100342.59;;;18.67;100.00
54262;BME280;40174;52.364;6.452;2023-08-06T11:50:06;100342.41;;;18.69;100.00
54262;BME280;40174;52.364;6.452;2023-08-06T11:52:33;100347.31;;;18.80;100.00
54262;BME280;40174;52.364;6.452;2023-08-06T11:55:02;100338.72;;;18.85;100.00
54262;BME280;40174;52.364;6.452;2023-08-06T11:57:31;100340.19;;;18.87;100.00
54262;BME280;40174;52.364;6.452;2023-08-06T12:00:02;100346.63;;;18.93;100.00
54262;BME280;40174;52.364;6.452;2023-08-06T12:02:39;100347.91;;;18.97;100.00
54262;BME280;40174;52.364;6.452;2023-08-06T12:05:11;100344.22;;;18.98;100.00
54262;BME280;40174;52.364;6.452;2023-08-06T12:07:38;100344.91;;;19.07;100.00
54262;BME280;40174;52.364;6.452;2023-08-06T12:10:07;100340.91;;;19.18;100.00
54262;BME280;40174;52.364;6.452;2023-08-06T12:12:34;100341.22;;;19.29;100.00
54262;BME280;40174;52.364;6.452;2023-08-06T12:15:02;100338.78;;;19.35;100.00
54262;BME280;40174;52.364;6.452;2023-08-06T12:17:28;100343.84;;;19.44;100.00
54262;BME280;40174;52.364;6.452;2023-08-06T12:19:55;100341.97;;;19.45;100.00
54262;BME280;40174;52.364;6.452;2023-08-06T12:22:22;100337.50;;;19.52;100.00
54262;BME280;40174;52.364;6.452;2023-08-06T12:24:48;100338.78;;;19.56;100.00
54262;BME280;40174;52.364;6.452;2023-08-06T12:27:17;100341.06;;;19.59;100.00
54262;BME280;40174;52.364;6.452;2023-08-06T12:29:48;100341.63;;;19.55;100.00
54262;BME280;40174;52.364;6.452;2023-08-06T12:32:15;100344.81;;;19.65;100.00
54262;BME280;40174;52.364;6.452;2023-08-06T12:34:42;100336.34;;;19.61;100.00
54262;BME280;40174;52.364;6.452;2023-08-06T12:37:09;100342.56;;;19.68;100.00
54262;BME280;40174;52.364;6.452;2023-08-06T12:39:36;100341.88;;;19.81;100.00
54262;BME280;40174;52.364;6.452;2023-08-06T12:42:04;100338.16;;;19.76;100.00
54262;BME280;40174;52.364;6.452;2023-08-06T12:44:32;100343.78;;;19.87;100.00
54262;BME280;40174;52.364;6.452;2023-08-06T12:46:59;100343.06;;;20.00;100.00